createdAt,value
2018-10-21T00:01:43.448Z,17.33
2018-10-21T00:04:12.162Z,17.63
2018-10-21T00:06:40.903Z,17.37
2018-10-21T00:09:11.395Z,15.37
2018-10-21T00:11:40.103Z,16.33
2018-10-21T00:14:09.329Z,17.17
2018-10-21T00:16:38.052Z,15.23
2018-10-21T00:19:06.865Z,18.50
2018-10-21T00:21:35.701Z,18.30
2018-10-21T00:24:04.759Z,18.73
2018-10-21T00:26:33.597Z,17.77
2018-10-21T00:29:02.547Z,18.27
2018-10-21T00:31:31.404Z,19.90
2018-10-21T00:34:00.110Z,17.03
2018-10-21T00:36:28.864Z,18.53
2018-10-21T00:39:01.788Z,19.60
2018-10-21T00:41:30.460Z,19.27
2018-10-21T00:43:59.231Z,18.53
2018-10-21T00:46:28.013Z,19.27
2018-10-21T00:48:56.726Z,18.87
2018-10-21T00:51:25.773Z,17.37
2018-10-21T00:53:54.274Z,19.70
2018-10-21T00:56:22.975Z,17.40
2018-10-21T00:58:51.821Z,18.87
2018-10-21T01:01:20.458Z,17.70
2018-10-21T01:03:49.032Z,20.93
2018-10-21T01:06:17.962Z,20.07
2018-10-21T01:08:46.593Z,17.73
2018-10-21T01:11:15.345Z,20.13
2018-10-21T01:13:44.181Z,17.53
2018-10-21T01:16:13.023Z,21.83
2018-10-21T01:18:41.352Z,19.30
2018-10-21T01:21:10.083Z,19.23
2018-10-21T01:23:38.904Z,18.20
2018-10-21T01:26:08.406Z,20.73
2018-10-21T01:28:37.101Z,18.13
2018-10-21T01:31:06.329Z,19.10
2018-10-21T01:33:35.113Z,18.13
2018-10-21T01:36:03.957Z,17.47
2018-10-21T01:38:32.465Z,17.43
2018-10-21T01:41:01.176Z,18.17
2018-10-21T01:43:31.114Z,18.67
2018-10-21T01:46:01.369Z,18.07
2018-10-21T01:48:30.643Z,18.97
2018-10-21T01:50:59.406Z,17.53
2018-10-21T01:53:28.076Z,20.57
2018-10-21T01:55:56.925Z,18.50
2018-10-21T01:58:25.581Z,16.37
2018-10-21T02:00:54.338Z,18.17
2018-10-21T02:03:22.943Z,18.97
2018-10-21T02:05:51.882Z,20.83
2018-10-21T02:08:20.362Z,20.00
2018-10-21T02:10:49.034Z,17.77
2018-10-21T02:13:17.477Z,18.53
2018-10-21T02:15:46.037Z,16.80
2018-10-21T02:18:14.884Z,17.43
2018-10-21T02:20:43.341Z,17.87
2018-10-21T02:23:12.088Z,20.77
2018-10-21T02:25:40.964Z,20.40
2018-10-21T02:28:09.885Z,17.67
2018-10-21T02:30:39.518Z,18.70
2018-10-21T02:33:08.097Z,17.47
2018-10-21T02:35:36.950Z,18.77
2018-10-21T02:38:06.044Z,16.90
2018-10-21T02:41:44.106Z,18.67
2018-10-21T02:44:16.976Z,18.27
2018-10-21T02:46:46.182Z,17.73
2018-10-21T02:49:15.549Z,18.13
2018-10-21T02:51:48.744Z,18.60
2018-10-21T02:54:22.063Z,17.67
2018-10-21T02:56:50.781Z,19.97
2018-10-21T02:59:19.359Z,19.17
2018-10-21T03:01:47.957Z,18.70
2018-10-21T03:04:16.861Z,20.33
2018-10-21T03:06:45.513Z,20.40
2018-10-21T03:09:14.487Z,21.27
2018-10-21T03:11:43.401Z,20.50
2018-10-21T03:14:12.145Z,17.67
2018-10-21T03:16:40.869Z,21.30
2018-10-21T03:19:09.235Z,20.53
2018-10-21T03:21:38.115Z,23.67
2018-10-21T03:24:06.941Z,19.87
2018-10-21T03:26:35.467Z,18.97
2018-10-21T03:29:04.313Z,20.33
2018-10-21T03:31:32.781Z,18.87
2018-10-21T03:34:01.408Z,17.73
2018-10-21T03:36:29.958Z,19.63
2018-10-21T03:38:59.238Z,21.70
2018-10-21T03:41:27.760Z,17.67
2018-10-21T03:44:01.686Z,18.77
2018-10-21T03:46:30.492Z,18.07
2018-10-21T03:48:59.316Z,18.33
2018-10-21T03:51:27.811Z,19.50
2018-10-21T03:53:56.310Z,18.27
2018-10-21T03:56:24.950Z,18.37
2018-10-21T03:58:53.410Z,20.27
2018-10-21T04:01:22.027Z,21.30
2018-10-21T04:03:50.806Z,17.60
2018-10-21T04:06:19.296Z,22.33
2018-10-21T04:08:48.015Z,19.33
2018-10-21T04:11:16.870Z,22.63
2018-10-21T04:13:45.762Z,21.43
2018-10-21T04:16:14.363Z,19.83
2018-10-21T04:18:42.925Z,20.00
2018-10-21T04:21:11.810Z,20.77
2018-10-21T04:23:40.494Z,20.73
2018-10-21T04:26:09.170Z,21.63
2018-10-21T04:28:37.857Z,18.63
2018-10-21T04:31:06.590Z,20.83
2018-10-21T04:33:42.473Z,20.87
2018-10-21T04:36:13.423Z,19.47
2018-10-21T04:39:51.212Z,22.03
2018-10-21T04:42:19.985Z,19.77
2018-10-21T04:44:49.024Z,18.97
2018-10-21T04:47:17.704Z,20.40
2018-10-21T04:49:46.189Z,21.77
2018-10-21T04:52:14.926Z,17.93
2018-10-21T04:54:43.769Z,22.97
2018-10-21T04:57:12.726Z,21.07
2018-10-21T04:59:41.189Z,20.50
2018-10-21T05:02:10.035Z,22.03
2018-10-21T05:04:38.727Z,20.30
2018-10-21T05:07:07.813Z,21.87
2018-10-21T05:09:38.768Z,21.40
2018-10-21T05:12:07.880Z,21.63
2018-10-21T05:14:36.487Z,25.13
2018-10-21T05:17:05.194Z,21.13
2018-10-21T05:19:33.912Z,20.20
2018-10-21T05:22:02.359Z,24.53
2018-10-21T05:24:30.884Z,22.27
2018-10-21T05:26:59.767Z,20.17
2018-10-21T05:29:28.452Z,19.43
2018-10-21T05:31:57.141Z,22.80
2018-10-21T05:34:26.285Z,23.80
2018-10-21T05:36:55.102Z,22.93
2018-10-21T05:39:23.819Z,20.93
2018-10-21T05:41:52.225Z,19.77
2018-10-21T05:44:20.988Z,22.77
2018-10-21T05:46:53.124Z,21.73
2018-10-21T05:49:22.016Z,21.07
2018-10-21T05:51:51.293Z,22.30
2018-10-21T05:54:20.093Z,21.80
2018-10-21T05:56:49.858Z,22.20
2018-10-21T05:59:18.787Z,21.70
2018-10-21T06:01:47.935Z,22.17
2018-10-21T06:04:17.348Z,23.03
2018-10-21T06:06:45.888Z,25.23
2018-10-21T06:09:15.110Z,21.10
2018-10-21T06:11:43.902Z,22.30
2018-10-21T06:14:22.380Z,23.23
2018-10-21T06:16:58.938Z,23.27
2018-10-21T06:19:35.003Z,21.90
2018-10-21T06:22:03.760Z,21.77
2018-10-21T06:24:32.333Z,24.60
2018-10-21T06:27:01.290Z,25.00
2018-10-21T06:29:29.918Z,25.33
2018-10-21T06:31:58.749Z,28.20
2018-10-21T06:34:44.375Z,25.33
2018-10-21T06:37:30.973Z,22.67
2018-10-21T06:42:46.720Z,25.13
2018-10-21T06:45:33.630Z,24.87
2018-10-21T06:50:51.288Z,26.43
2018-10-21T06:53:34.802Z,27.63
2018-10-21T06:56:19.420Z,24.33
2018-10-21T06:59:07.801Z,23.20
2018-10-21T07:01:54.594Z,22.67
2018-10-21T07:04:42.665Z,28.03
2018-10-21T07:07:17.088Z,23.37
2018-10-21T07:09:48.373Z,25.77
2018-10-21T07:12:20.015Z,23.93
2018-10-21T07:14:49.618Z,27.90
2018-10-21T07:17:18.061Z,21.73
2018-10-21T07:19:46.811Z,26.47
2018-10-21T07:22:15.700Z,25.87
2018-10-21T07:24:44.580Z,24.00
2018-10-21T07:27:13.280Z,28.70
2018-10-21T07:29:41.899Z,27.73
2018-10-21T07:32:10.619Z,26.60
2018-10-21T07:34:39.383Z,24.97
2018-10-21T07:37:07.948Z,25.57
2018-10-21T07:39:36.658Z,23.07
2018-10-21T07:42:05.615Z,26.53
2018-10-21T07:44:34.469Z,27.03
2018-10-21T07:47:03.141Z,28.10
2018-10-21T07:49:31.632Z,28.07
2018-10-21T07:52:03.193Z,26.10
2018-10-21T07:54:31.886Z,28.33
2018-10-21T07:57:00.527Z,26.60
2018-10-21T07:59:29.021Z,27.00
2018-10-21T08:01:57.732Z,26.60
2018-10-21T08:04:26.613Z,27.83
2018-10-21T08:07:06.335Z,27.37
2018-10-21T08:09:34.801Z,28.87
2018-10-21T08:12:03.345Z,28.40
2018-10-21T08:14:32.255Z,30.37
2018-10-21T08:17:01.069Z,31.17
2018-10-21T08:19:29.762Z,27.60
2018-10-21T08:21:58.297Z,29.93
2018-10-21T08:24:27.133Z,29.50
2018-10-21T08:26:55.820Z,29.73
2018-10-21T08:29:25.562Z,32.17
2018-10-21T08:31:54.441Z,31.70
2018-10-21T08:34:22.956Z,28.40
2018-10-21T08:36:51.837Z,28.93
2018-10-21T08:39:21.867Z,31.83
2018-10-21T08:41:50.371Z,29.93
2018-10-21T08:44:32.249Z,29.00
2018-10-21T08:47:19.121Z,29.07
2018-10-21T08:50:06.460Z,31.73
2018-10-21T08:52:48.601Z,28.37
2018-10-21T08:55:17.141Z,28.50
2018-10-21T08:57:45.822Z,28.07
2018-10-21T09:00:16.245Z,28.87
2018-10-21T09:02:46.507Z,29.20
2018-10-21T09:05:17.247Z,26.73
2018-10-21T09:07:47.021Z,29.90
2018-10-21T09:10:17.747Z,24.50
2018-10-21T09:12:46.328Z,28.13
2018-10-21T09:15:16.607Z,27.27
2018-10-21T09:17:53.485Z,27.50
2018-10-21T09:20:25.237Z,27.63
2018-10-21T09:22:54.223Z,26.97
2018-10-21T09:25:22.864Z,28.03
2018-10-21T09:27:51.786Z,30.63
2018-10-21T09:30:20.500Z,29.90
2018-10-21T09:32:49.769Z,30.47
2018-10-21T09:35:19.558Z,28.33
2018-10-21T09:37:49.901Z,25.87
2018-10-21T09:40:20.480Z,31.57
2018-10-21T09:43:13.501Z,27.37
2018-10-21T09:45:42.284Z,28.13
2018-10-21T09:48:13.892Z,31.03
2018-10-21T09:50:42.739Z,27.67
2018-10-21T09:53:15.231Z,30.67
2018-10-21T09:55:43.994Z,30.40
2018-10-21T09:58:12.701Z,29.67
2018-10-21T10:02:55.825Z,30.17
2018-10-21T10:05:28.463Z,30.40
2018-10-21T10:07:57.244Z,30.50
2018-10-21T10:10:26.641Z,30.30
2018-10-21T10:12:56.778Z,32.13
2018-10-21T10:15:24.789Z,29.60
2018-10-21T10:17:53.592Z,29.60
2018-10-21T10:20:23.337Z,36.27
2018-10-21T10:22:52.411Z,33.47
2018-10-21T10:25:21.004Z,26.90
2018-10-21T10:27:55.937Z,27.43
2018-10-21T10:30:25.282Z,26.10
2018-10-21T10:32:55.612Z,30.20
2018-10-21T10:35:23.675Z,26.03
2018-10-21T10:37:52.840Z,26.83
2018-10-21T10:40:22.620Z,28.17
2018-10-21T10:42:51.324Z,29.47
2018-10-21T10:45:19.904Z,28.40
2018-10-21T10:47:49.541Z,26.23
2018-10-21T10:50:28.409Z,26.80
2018-10-21T10:52:58.002Z,29.07
2018-10-21T10:55:35.675Z,28.07
2018-10-21T10:58:06.746Z,29.03
2018-10-21T11:00:37.903Z,25.83
2018-10-21T11:03:17.831Z,25.27
2018-10-21T11:05:50.269Z,23.23
2018-10-21T11:08:30.154Z,26.07
2018-10-21T11:11:07.337Z,23.80
2018-10-21T11:13:39.881Z,24.43
2018-10-21T11:16:16.115Z,24.87
2018-10-21T11:18:49.689Z,24.57
2018-10-21T11:21:33.306Z,24.23
2018-10-21T11:24:38.011Z,25.70
2018-10-21T11:27:15.767Z,24.17
2018-10-21T11:29:49.217Z,23.23
2018-10-21T11:32:40.566Z,22.83
2018-10-21T11:35:18.163Z,24.53
2018-10-21T11:37:55.222Z,24.80
2018-10-21T11:40:29.757Z,22.40
2018-10-21T11:43:07.678Z,19.27
2018-10-21T11:45:39.473Z,20.70
2018-10-21T11:48:10.087Z,21.00
2018-10-21T11:50:45.009Z,20.87
2018-10-21T11:53:17.148Z,18.07
2018-10-21T11:55:46.018Z,17.53
2018-10-21T11:58:16.949Z,17.57
2018-10-21T12:00:48.117Z,16.33
2018-10-21T12:03:16.288Z,16.87
2018-10-21T12:05:46.714Z,17.70
2018-10-21T12:08:18.031Z,19.93
2018-10-21T12:10:51.120Z,18.67
2018-10-21T12:13:23.826Z,18.73
2018-10-21T12:15:53.447Z,21.03
2018-10-21T12:18:31.552Z,19.90
2018-10-21T12:21:12.904Z,18.47
2018-10-21T12:23:43.519Z,19.97
2018-10-21T12:26:21.430Z,17.90
2018-10-21T12:28:53.628Z,17.97
2018-10-21T12:31:22.795Z,16.73
2018-10-21T12:34:06.480Z,16.57
2018-10-21T12:36:39.294Z,18.87
2018-10-21T12:39:13.583Z,17.40
2018-10-21T12:41:42.986Z,19.10
2018-10-21T12:44:13.886Z,18.30
2018-10-21T12:46:48.298Z,17.47
2018-10-21T12:49:18.365Z,17.57
2018-10-21T12:51:49.073Z,18.03
2018-10-21T12:54:22.948Z,18.73
2018-10-21T12:57:01.038Z,17.87
2018-10-21T12:59:31.973Z,18.87
2018-10-21T13:02:03.696Z,17.97
2018-10-21T13:04:45.834Z,20.30
2018-10-21T13:07:18.345Z,18.47
2018-10-21T13:09:49.970Z,17.47
2018-10-21T13:12:37.166Z,17.10
2018-10-21T13:15:09.434Z,19.50
2018-10-21T13:17:47.176Z,17.57
2018-10-21T13:20:24.727Z,18.57
2018-10-21T13:22:56.327Z,17.03
2018-10-21T13:25:28.043Z,17.03
2018-10-21T13:27:59.169Z,15.83
2018-10-21T13:30:30.457Z,18.33
2018-10-21T13:33:01.782Z,17.17
2018-10-21T13:35:35.662Z,14.47
2018-10-21T13:38:10.749Z,16.53
2018-10-21T13:40:47.671Z,13.77
2018-10-21T13:43:36.117Z,16.07
2018-10-21T13:46:06.742Z,10.90
2018-10-21T13:48:37.609Z,12.53
2018-10-21T13:51:12.515Z,12.17
2018-10-21T13:53:41.254Z,11.43
2018-10-21T13:56:16.568Z,11.23
2018-10-21T13:58:50.926Z,11.60
2018-10-21T14:01:27.749Z,10.20
2018-10-21T14:04:01.797Z,10.50
2018-10-21T14:06:34.828Z,13.17
2018-10-21T14:09:14.805Z,10.33
2018-10-21T14:11:51.262Z,11.27
2018-10-21T14:14:30.296Z,11.80
2018-10-21T14:17:02.874Z,13.33
2018-10-21T14:19:40.652Z,9.90
2018-10-21T14:22:20.257Z,14.10
2018-10-21T14:24:57.928Z,10.87
2018-10-21T14:27:33.526Z,12.10
2018-10-21T14:30:10.372Z,10.93
2018-10-21T14:32:40.093Z,11.43
2018-10-21T14:35:12.604Z,12.13
2018-10-21T14:37:50.269Z,13.37
2018-10-21T14:40:23.814Z,13.83
2018-10-21T14:42:54.488Z,12.73
2018-10-21T14:45:23.708Z,13.60
2018-10-21T14:47:54.340Z,11.27
2018-10-21T14:50:23.543Z,14.07
2018-10-21T14:52:53.907Z,14.57
2018-10-21T14:55:24.255Z,14.03
2018-10-21T14:57:52.715Z,12.03
2018-10-21T15:00:29.053Z,12.87
2018-10-21T15:02:58.709Z,13.83
2018-10-21T15:05:30.533Z,12.33
2018-10-21T15:08:05.021Z,10.90
2018-10-21T15:10:35.611Z,11.20
2018-10-21T15:13:05.057Z,12.33
2018-10-21T15:15:34.371Z,11.17
2018-10-21T15:18:04.797Z,8.73
2018-10-21T15:20:35.402Z,9.27
2018-10-21T15:23:06.258Z,9.00
2018-10-21T15:25:36.649Z,8.03
2018-10-21T15:28:05.838Z,9.20
2018-10-21T15:30:34.690Z,8.93
2018-10-21T15:33:06.241Z,10.60
2018-10-21T15:35:35.242Z,11.10
2018-10-21T15:38:07.173Z,12.03
2018-10-21T15:40:37.925Z,10.83
2018-10-21T15:43:15.713Z,10.33
2018-10-21T15:45:46.002Z,11.47
2018-10-21T15:48:30.756Z,9.80
2018-10-21T15:51:11.981Z,10.63
2018-10-21T15:54:04.299Z,13.77
2018-10-21T15:56:37.106Z,10.47
2018-10-21T15:59:08.530Z,10.37
2018-10-21T16:01:45.185Z,11.47
2018-10-21T16:04:17.431Z,12.43
2018-10-21T16:06:48.382Z,10.70
2018-10-21T16:09:19.525Z,10.13
2018-10-21T16:11:49.196Z,10.63
2018-10-21T16:14:18.529Z,10.20
2018-10-21T16:16:49.585Z,9.20
2018-10-21T16:19:21.187Z,8.93
2018-10-21T16:21:59.098Z,8.50
2018-10-21T16:24:41.584Z,10.63
2018-10-21T16:27:18.235Z,9.57
2018-10-21T16:29:51.074Z,8.37
2018-10-21T16:32:23.470Z,8.10
2018-10-21T16:34:59.911Z,9.33
2018-10-21T16:37:40.067Z,9.47
2018-10-21T16:40:15.083Z,7.67
2018-10-21T16:42:43.813Z,6.93
2018-10-21T16:45:16.700Z,6.90
2018-10-21T16:47:52.403Z,8.07
2018-10-21T16:50:21.266Z,6.63
2018-10-21T16:52:50.552Z,6.87
2018-10-21T16:55:21.906Z,5.40
2018-10-21T16:57:55.939Z,7.67
2018-10-21T17:00:26.963Z,7.10
2018-10-21T17:03:04.399Z,6.17
2018-10-21T17:05:36.243Z,11.93
2018-10-21T17:08:10.245Z,10.87
2018-10-21T17:10:44.702Z,9.87
2018-10-21T17:13:18.831Z,8.00
2018-10-21T17:15:49.114Z,9.17
2018-10-21T17:18:31.860Z,7.80
2018-10-21T17:21:06.606Z,8.43
2018-10-21T17:24:00.720Z,9.93
2018-10-21T17:26:52.457Z,8.03
2018-10-21T17:29:37.927Z,10.17
2018-10-21T17:32:25.821Z,10.57
2018-10-21T17:35:10.828Z,12.73
2018-10-21T17:37:58.627Z,13.17
2018-10-21T17:40:42.650Z,16.37
2018-10-21T17:43:29.791Z,14.53
2018-10-21T17:49:22.292Z,18.30
2018-10-21T17:52:28.316Z,17.30
2018-10-21T17:55:30.223Z,18.63
2018-10-21T17:58:37.044Z,16.80
2018-10-21T18:01:36.721Z,16.50
2018-10-21T18:07:24.800Z,19.47
2018-10-21T18:10:26.091Z,15.60
2018-10-21T18:13:10.467Z,17.97
2018-10-21T18:15:41.953Z,19.97
2018-10-21T18:18:17.830Z,18.40
2018-10-21T18:20:53.618Z,19.23
2018-10-21T18:23:27.561Z,18.13
2018-10-21T18:26:06.207Z,20.10
2018-10-21T18:28:40.077Z,18.37
2018-10-21T18:31:12.216Z,19.77
2018-10-21T18:33:46.907Z,23.27
2018-10-21T18:36:19.031Z,19.37
2018-10-21T18:38:50.818Z,19.53
2018-10-21T18:41:26.309Z,18.97
2018-10-21T18:43:58.266Z,21.33
2018-10-21T18:46:32.928Z,23.97
2018-10-21T18:49:06.664Z,20.27
2018-10-21T18:51:38.285Z,21.77
2018-10-21T18:54:12.717Z,21.03
2018-10-21T18:56:46.566Z,22.70
2018-10-21T18:59:17.427Z,21.97
2018-10-21T19:01:49.355Z,23.90
2018-10-21T19:04:24.886Z,19.77
2018-10-21T19:07:00.366Z,20.80
2018-10-21T19:09:34.524Z,24.90
2018-10-21T19:12:07.043Z,23.27
2018-10-21T19:14:41.318Z,21.63
2018-10-21T19:17:13.158Z,24.73
2018-10-21T19:19:48.374Z,23.37
2018-10-21T19:22:21.008Z,25.90
2018-10-21T19:24:51.796Z,23.43
2018-10-21T19:27:23.748Z,21.30
2018-10-21T19:29:57.279Z,23.03
2018-10-21T19:32:35.875Z,22.80
2018-10-21T19:35:09.071Z,24.60
2018-10-21T19:37:40.565Z,26.57
2018-10-21T19:40:17.736Z,26.50
2018-10-21T19:42:51.505Z,25.27
2018-10-21T19:45:23.608Z,25.53
2018-10-21T19:47:54.301Z,25.17
2018-10-21T19:50:29.237Z,29.67
2018-10-21T19:53:04.420Z,27.10
2018-10-21T19:55:39.565Z,25.17
2018-10-21T19:58:11.889Z,27.43
2018-10-21T20:00:42.991Z,30.90
2018-10-21T20:03:13.661Z,34.57
2018-10-21T20:05:49.010Z,29.40
2018-10-21T20:08:22.426Z,28.30
2018-10-21T20:10:56.060Z,27.27
2018-10-21T20:13:26.242Z,27.47
2018-10-21T20:15:57.945Z,27.40
2018-10-21T20:18:32.321Z,28.37
2018-10-21T20:21:07.480Z,29.27
2018-10-21T20:23:37.152Z,28.07
2018-10-21T20:26:07.629Z,28.70
2018-10-21T20:28:37.031Z,30.50
2018-10-21T20:31:05.986Z,28.87
2018-10-21T20:33:34.808Z,30.67
2018-10-21T20:36:04.276Z,30.50
2018-10-21T20:38:35.554Z,30.07
2018-10-21T20:41:06.783Z,31.57
2018-10-21T20:43:37.499Z,33.07
2018-10-21T20:46:07.893Z,31.67
2018-10-21T20:48:37.277Z,33.03
2018-10-21T20:51:08.553Z,32.10
2018-10-21T20:53:37.449Z,34.33
2018-10-21T20:56:07.789Z,32.43
2018-10-21T20:58:37.159Z,32.87
2018-10-21T21:01:07.481Z,31.43
2018-10-21T21:03:37.116Z,32.77
2018-10-21T21:06:06.077Z,31.60
2018-10-21T21:08:34.640Z,28.20
2018-10-21T21:11:04.828Z,31.27
2018-10-21T21:13:35.075Z,30.00
2018-10-21T21:16:03.948Z,29.67
2018-10-21T21:18:33.918Z,31.83
2018-10-21T21:21:02.868Z,32.67
2018-10-21T21:23:32.334Z,29.07
2018-10-21T21:26:01.186Z,34.57
2018-10-21T21:28:30.051Z,32.33
2018-10-21T21:30:58.749Z,29.33
2018-10-21T21:33:27.255Z,32.93
2018-10-21T21:35:56.130Z,33.53
2018-10-21T21:38:24.817Z,32.23
2018-10-21T21:40:53.325Z,33.03
2018-10-21T21:43:22.122Z,30.00
2018-10-21T21:45:50.872Z,32.83
2018-10-21T21:48:19.603Z,28.90
2018-10-21T21:50:48.206Z,30.50
2018-10-21T21:53:17.104Z,30.73
2018-10-21T21:55:45.854Z,29.17
2018-10-21T21:58:14.573Z,30.70
2018-10-21T22:00:43.148Z,28.60
2018-10-21T22:03:12.208Z,32.00
2018-10-21T22:05:40.944Z,30.77
2018-10-21T22:08:15.151Z,31.73
2018-10-21T22:10:44.035Z,30.83
2018-10-21T22:13:12.719Z,29.17
2018-10-21T22:15:41.230Z,29.40
2018-10-21T22:18:10.175Z,31.90
2018-10-21T22:20:38.808Z,29.40
2018-10-21T22:23:07.331Z,29.10
2018-10-21T22:25:35.961Z,31.93
2018-10-21T22:28:04.933Z,33.50
2018-10-21T22:30:33.777Z,31.70
2018-10-21T22:33:08.775Z,32.17
2018-10-21T22:35:37.697Z,29.00
2018-10-21T22:38:06.416Z,31.27
2018-10-21T22:40:35.264Z,31.53
2018-10-21T22:43:03.823Z,26.60
2018-10-21T22:45:32.394Z,31.37
2018-10-21T22:48:01.110Z,31.27
2018-10-21T22:50:29.531Z,29.57
2018-10-21T22:52:58.082Z,30.47
2018-10-21T22:55:26.756Z,28.57
2018-10-21T22:57:59.775Z,29.47
2018-10-21T23:00:28.946Z,28.37
2018-10-21T23:02:57.531Z,28.03
2018-10-21T23:05:26.045Z,27.43
2018-10-21T23:07:54.621Z,31.57
2018-10-21T23:10:27.095Z,27.27
2018-10-21T23:12:55.936Z,31.20
2018-10-21T23:15:24.436Z,29.57
2018-10-21T23:17:53.345Z,29.20
2018-10-21T23:20:22.225Z,28.47
2018-10-21T23:22:53.046Z,29.10
2018-10-21T23:25:23.808Z,27.83
2018-10-21T23:27:52.570Z,32.40
2018-10-21T23:30:21.346Z,29.33
2018-10-21T23:32:50.149Z,29.80
2018-10-21T23:35:18.687Z,31.40
2018-10-21T23:37:47.562Z,30.73
2018-10-21T23:40:16.439Z,30.53
2018-10-21T23:42:44.869Z,31.00
2018-10-21T23:45:13.594Z,34.37
2018-10-21T23:47:42.425Z,31.03
2018-10-21T23:50:10.913Z,30.27
2018-10-21T23:52:39.418Z,32.53
2018-10-21T23:55:07.898Z,30.50
2018-10-21T23:57:36.560Z,34.87
